createdAt,value
2023-02-17T00:01:33.482Z,-0.96
2023-02-17T00:04:01.555Z,-1.06
2023-02-17T00:06:32.292Z,-1.06
2023-02-17T00:09:02.035Z,-1.07
2023-02-17T00:11:30.219Z,-1.02
2023-02-17T00:13:57.815Z,-1.12
2023-02-17T00:16:27.749Z,-1.12
2023-02-17T00:18:58.334Z,-1.11
2023-02-17T00:21:29.265Z,-1.16
2023-02-17T00:23:58.430Z,-1.21
2023-02-17T00:26:26.103Z,-1.19
2023-02-17T00:28:53.686Z,-1.24
2023-02-17T00:31:25.272Z,-1.24
2023-02-17T00:33:55.856Z,-1.20
2023-02-17T00:36:25.067Z,-1.24
2023-02-17T00:38:55.739Z,-1.33
2023-02-17T00:41:25.118Z,-1.27
2023-02-17T00:43:52.702Z,-1.24
2023-02-17T00:46:21.055Z,-1.27
2023-02-17T00:48:49.573Z,-1.25
2023-02-17T00:51:17.817Z,-1.16
2023-02-17T00:53:46.576Z,-1.13
2023-02-17T00:56:14.894Z,-1.23
2023-02-17T00:58:42.842Z,-1.30
2023-02-17T01:01:12.194Z,-1.40
2023-02-17T01:03:42.465Z,-1.31
2023-02-17T01:06:23.570Z,-1.30
2023-02-17T01:08:51.485Z,-1.27
2023-02-17T01:11:21.406Z,-1.27
2023-02-17T01:13:49.336Z,-1.14
2023-02-17T01:16:30.249Z,-1.15
2023-02-17T01:19:00.055Z,-1.20
2023-02-17T01:21:29.269Z,-1.29
2023-02-17T01:23:59.252Z,-1.30
2023-02-17T01:26:28.563Z,-1.40
2023-02-17T01:28:57.230Z,-1.42
2023-02-17T01:31:29.345Z,-1.45
2023-02-17T01:33:58.864Z,-1.43
2023-02-17T01:36:27.429Z,-1.42
2023-02-17T01:38:55.456Z,-1.34
2023-02-17T01:41:28.749Z,-1.33
2023-02-17T01:44:18.373Z,-1.15
2023-02-17T01:46:47.296Z,-1.15
2023-02-17T01:49:24.736Z,-1.15
2023-02-17T01:52:06.945Z,-1.15
2023-02-17T01:54:49.220Z,-1.28
2023-02-17T01:57:20.185Z,-1.25
2023-02-17T01:59:48.715Z,-1.30
2023-02-17T02:02:16.991Z,-1.27
2023-02-17T02:04:52.141Z,-1.19
2023-02-17T02:07:28.872Z,-1.19
2023-02-17T02:09:58.377Z,-1.25
2023-02-17T02:12:28.793Z,-1.27
2023-02-17T02:15:00.232Z,-1.34
2023-02-17T02:17:36.596Z,-1.33
2023-02-17T02:20:38.688Z,-1.37
2023-02-17T02:23:17.167Z,-1.40
2023-02-17T02:26:12.728Z,-1.53
2023-02-17T02:29:01.026Z,-1.47
2023-02-17T02:31:41.167Z,-1.34
2023-02-17T02:34:23.971Z,-1.28
2023-02-17T02:37:09.379Z,-1.26
2023-02-17T02:39:43.020Z,-1.28
2023-02-17T02:42:14.926Z,-1.33
2023-02-17T02:44:42.853Z,-1.38
2023-02-17T02:47:39.598Z,-1.34
2023-02-17T02:50:11.827Z,-1.28
2023-02-17T02:52:53.272Z,-1.28
2023-02-17T02:56:05.835Z,-1.31
2023-02-17T02:59:01.308Z,-1.39
2023-02-17T03:02:09.149Z,-1.44
2023-02-17T03:04:39.023Z,-1.45
2023-02-17T03:07:21.285Z,-1.45
2023-02-17T03:09:52.938Z,-1.41
2023-02-17T03:12:21.991Z,-1.40
2023-02-17T03:14:54.916Z,-1.39
2023-02-17T03:17:31.803Z,-1.29
2023-02-17T03:20:03.630Z,-1.30
2023-02-17T03:22:38.172Z,-1.27
2023-02-17T03:25:06.753Z,-1.13
2023-02-17T03:27:34.676Z,-1.19
2023-02-17T03:30:03.730Z,-1.27
2023-02-17T03:32:31.639Z,-1.31
2023-02-17T03:34:59.360Z,-1.25
2023-02-17T03:37:26.936Z,-1.19
2023-02-17T03:39:54.493Z,-1.34
2023-02-17T03:42:22.086Z,-1.40
2023-02-17T03:44:49.565Z,-1.43
2023-02-17T03:47:20.009Z,-1.48
2023-02-17T03:49:47.553Z,-1.49
2023-02-17T03:52:15.289Z,-1.60
2023-02-17T03:54:42.866Z,-1.58
2023-02-17T03:57:10.886Z,-1.55
2023-02-17T03:59:38.576Z,-1.48
2023-02-17T04:02:09.291Z,-1.49
2023-02-17T04:04:37.004Z,-1.54
2023-02-17T04:07:06.368Z,-1.56
2023-02-17T04:09:34.624Z,-1.55
2023-02-17T04:12:02.222Z,-1.63
2023-02-17T04:14:30.002Z,-1.58
2023-02-17T04:16:59.804Z,-1.67
2023-02-17T04:19:27.784Z,-1.62
2023-02-17T04:21:56.231Z,-1.52
2023-02-17T04:24:23.900Z,-1.50
2023-02-17T04:26:52.984Z,-1.49
2023-02-17T04:29:20.618Z,-1.56
2023-02-17T04:31:48.519Z,-1.59
2023-02-17T04:34:16.199Z,-1.59
2023-02-17T04:36:44.426Z,-1.66
2023-02-17T04:39:12.828Z,-1.66
2023-02-17T04:41:40.451Z,-1.68
2023-02-17T04:44:08.004Z,-1.64
2023-02-17T04:46:35.828Z,-1.59
2023-02-17T04:49:05.056Z,-1.55
2023-02-17T04:51:32.824Z,-1.53
2023-02-17T04:54:00.453Z,-1.49
2023-02-17T04:56:28.050Z,-1.51
2023-02-17T04:58:55.534Z,-1.50
2023-02-17T05:01:23.413Z,-1.44
2023-02-17T05:03:50.962Z,-1.39
2023-02-17T05:06:18.806Z,-1.47
2023-02-17T05:08:48.342Z,-1.45
2023-02-17T05:11:16.778Z,-1.41
2023-02-17T05:13:44.740Z,-1.34
2023-02-17T05:16:12.383Z,-1.22
2023-02-17T05:18:40.753Z,-1.26
2023-02-17T05:21:08.319Z,-1.16
2023-02-17T05:23:41.255Z,-1.11
2023-02-17T05:26:09.641Z,-1.13
2023-02-17T05:28:37.672Z,-1.03
2023-02-17T05:31:05.255Z,-1.01
2023-02-17T05:33:33.192Z,-1.09
2023-02-17T05:36:07.313Z,-1.09
2023-02-17T05:38:37.565Z,-1.03
2023-02-17T05:41:05.872Z,-1.04
2023-02-17T05:43:33.766Z,-0.99
2023-02-17T05:46:06.128Z,-0.95
2023-02-17T05:48:34.769Z,-0.94
2023-02-17T05:51:03.010Z,-0.91
2023-02-17T05:53:31.646Z,-0.87
2023-02-17T05:55:59.505Z,-0.87
2023-02-17T05:58:27.524Z,-0.88
2023-02-17T06:00:55.191Z,-0.83
2023-02-17T06:03:22.743Z,-0.73
2023-02-17T06:05:50.496Z,-0.52
2023-02-17T06:08:18.212Z,-0.63
2023-02-17T06:10:46.992Z,-0.58
2023-02-17T06:13:15.319Z,-0.56
2023-02-17T06:15:43.008Z,-0.51
2023-02-17T06:18:10.580Z,-0.48
2023-02-17T06:20:39.058Z,-0.47
2023-02-17T06:23:06.752Z,-0.53
2023-02-17T06:25:34.970Z,-0.42
2023-02-17T06:28:02.686Z,-0.35
2023-02-17T06:30:31.676Z,-0.34
2023-02-17T06:32:59.741Z,-0.22
2023-02-17T06:35:27.427Z,-0.17
2023-02-17T06:37:55.196Z,-0.23
2023-02-17T06:40:23.297Z,-0.15
2023-02-17T06:42:53.801Z,-0.12
2023-02-17T06:45:22.214Z,0.04
2023-02-17T06:47:49.936Z,0.18
2023-02-17T06:50:18.613Z,0.14
2023-02-17T06:52:46.421Z,0.08
2023-02-17T06:55:14.033Z,0.04
2023-02-17T06:57:42.369Z,0.05
2023-02-17T07:00:10.623Z,0.11
2023-02-17T07:02:39.655Z,0.06
2023-02-17T07:05:08.589Z,0.03
2023-02-17T07:07:37.186Z,0.16
2023-02-17T07:10:05.632Z,0.37
2023-02-17T07:12:39.094Z,0.46
2023-02-17T07:15:09.454Z,0.53
2023-02-17T07:17:39.672Z,0.51
2023-02-17T07:20:08.194Z,0.65
2023-02-17T07:22:36.317Z,0.67
2023-02-17T07:25:08.238Z,0.60
2023-02-17T07:27:37.085Z,0.75
2023-02-17T07:30:06.549Z,0.85
2023-02-17T07:32:35.656Z,0.97
2023-02-17T07:35:03.520Z,1.25
2023-02-17T07:37:31.240Z,1.40
2023-02-17T07:39:59.137Z,1.42
2023-02-17T07:42:29.777Z,1.22
2023-02-17T07:44:57.361Z,1.03
2023-02-17T07:47:28.865Z,1.17
2023-02-17T07:49:56.984Z,1.25
2023-02-17T07:52:24.565Z,1.15
2023-02-17T07:54:52.216Z,1.17
2023-02-17T07:57:19.803Z,1.15
2023-02-17T07:59:48.229Z,1.04
2023-02-17T08:02:17.102Z,1.05
2023-02-17T08:04:44.769Z,1.07
2023-02-17T08:07:12.351Z,1.25
2023-02-17T08:09:58.488Z,1.42
2023-02-17T08:12:44.604Z,1.60
2023-02-17T08:15:13.264Z,1.67
2023-02-17T08:17:41.570Z,1.71
2023-02-17T08:20:09.802Z,1.56
2023-02-17T08:22:39.782Z,1.51
2023-02-17T08:25:08.273Z,1.58
2023-02-17T08:27:36.011Z,1.83
2023-02-17T08:30:08.028Z,1.58
2023-02-17T08:32:35.739Z,1.45
2023-02-17T08:35:03.580Z,1.38
2023-02-17T08:37:32.312Z,1.25
2023-02-17T08:40:00.423Z,1.26
2023-02-17T08:42:28.727Z,1.31
2023-02-17T08:44:57.037Z,1.31
2023-02-17T08:47:24.739Z,1.38
2023-02-17T08:49:53.430Z,1.26
2023-02-17T08:52:20.917Z,1.34
2023-02-17T08:54:52.720Z,1.15
2023-02-17T08:57:21.606Z,1.25
2023-02-17T08:59:49.960Z,1.24
2023-02-17T09:02:17.672Z,1.18
2023-02-17T09:04:45.951Z,1.06
2023-02-17T09:07:15.304Z,1.07
2023-02-17T09:09:43.137Z,1.04
2023-02-17T09:12:10.900Z,1.12
2023-02-17T09:14:40.501Z,1.29
2023-02-17T09:17:08.552Z,1.42
2023-02-17T09:19:39.246Z,1.60
2023-02-17T09:22:07.723Z,1.48
2023-02-17T09:24:38.882Z,1.54
2023-02-17T09:27:06.798Z,1.59
2023-02-17T09:29:34.636Z,1.63
2023-02-17T09:32:03.178Z,1.67
2023-02-17T09:34:30.900Z,1.69
2023-02-17T09:36:58.487Z,1.80
2023-02-17T09:39:26.668Z,1.90
2023-02-17T09:41:56.673Z,1.81
2023-02-17T09:44:39.185Z,1.53
2023-02-17T09:47:27.184Z,1.48
2023-02-17T09:50:00.854Z,1.39
2023-02-17T09:52:31.989Z,1.45
2023-02-17T09:55:18.431Z,1.43
2023-02-17T09:57:52.185Z,1.45
2023-02-17T10:00:26.205Z,1.38
2023-02-17T10:03:04.885Z,1.38
2023-02-17T10:05:40.749Z,1.53
2023-02-17T10:08:21.282Z,1.61
2023-02-17T10:11:21.536Z,1.48
2023-02-17T10:13:55.960Z,1.56
2023-02-17T10:16:34.517Z,1.61
2023-02-17T10:19:28.316Z,1.76
2023-02-17T10:22:07.905Z,1.76
2023-02-17T10:24:35.420Z,1.70
2023-02-17T10:27:11.843Z,1.64
2023-02-17T10:29:51.662Z,1.58
2023-02-17T10:32:29.430Z,1.59
2023-02-17T10:35:20.986Z,1.73
2023-02-17T10:37:54.907Z,1.72
2023-02-17T10:40:27.586Z,1.63
2023-02-17T10:43:01.121Z,1.59
2023-02-17T10:45:37.656Z,1.47
2023-02-17T10:48:14.696Z,1.40
2023-02-17T10:50:44.449Z,1.44
2023-02-17T10:53:22.785Z,1.41
2023-02-17T10:55:54.644Z,1.54
2023-02-17T10:58:42.104Z,1.57
2023-02-17T11:01:10.542Z,1.64
2023-02-17T11:03:43.614Z,1.70
2023-02-17T11:06:22.529Z,1.56
2023-02-17T11:08:51.958Z,1.66
2023-02-17T11:11:26.798Z,1.59
2023-02-17T11:14:06.261Z,1.54
2023-02-17T11:16:39.204Z,1.56
2023-02-17T11:19:38.752Z,1.43
2023-02-17T11:22:34.142Z,1.48
2023-02-17T11:25:06.632Z,1.60
2023-02-17T11:27:35.232Z,1.59
2023-02-17T11:30:11.005Z,1.66
2023-02-17T11:32:39.437Z,1.69
2023-02-17T11:35:22.613Z,1.58
2023-02-17T11:37:50.413Z,1.42
2023-02-17T11:40:26.790Z,1.43
2023-02-17T11:42:59.534Z,1.43
2023-02-17T11:46:02.484Z,1.43
2023-02-17T11:48:51.898Z,1.41
2023-02-17T11:51:28.668Z,1.49
2023-02-17T11:54:05.321Z,1.40
2023-02-17T11:56:46.910Z,1.68
2023-02-17T11:59:30.538Z,1.51
2023-02-17T12:02:15.260Z,1.40
2023-02-17T12:05:13.575Z,1.48
2023-02-17T12:07:59.560Z,1.44
2023-02-17T12:11:00.126Z,1.38
2023-02-17T12:13:31.884Z,1.43
2023-02-17T12:16:09.363Z,1.34
2023-02-17T12:18:43.373Z,1.31
2023-02-17T12:21:10.930Z,1.22
2023-02-17T12:23:59.836Z,1.21
2023-02-17T12:26:39.989Z,1.27
2023-02-17T12:29:26.069Z,1.19
2023-02-17T12:32:09.241Z,1.29
2023-02-17T12:34:45.130Z,1.27
2023-02-17T12:37:48.377Z,1.21
2023-02-17T12:40:25.411Z,1.14
2023-02-17T12:42:57.957Z,1.13
2023-02-17T12:45:37.268Z,1.18
2023-02-17T12:48:13.637Z,1.06
2023-02-17T12:51:00.464Z,1.05
2023-02-17T12:53:44.154Z,1.00
2023-02-17T12:56:51.328Z,0.97
2023-02-17T12:59:30.328Z,1.00
2023-02-17T13:02:06.894Z,1.01
2023-02-17T13:04:35.773Z,0.93
2023-02-17T13:07:21.400Z,0.90
2023-02-17T13:09:50.887Z,0.93
2023-02-17T13:12:24.446Z,0.96
2023-02-17T13:14:56.060Z,0.95
2023-02-17T13:17:34.472Z,0.84
2023-02-17T13:20:11.346Z,0.80
2023-02-17T13:22:40.498Z,0.79
2023-02-17T13:25:12.957Z,0.76
2023-02-17T13:27:41.350Z,0.64
2023-02-17T13:30:17.752Z,0.61
2023-02-17T13:32:45.821Z,0.68
2023-02-17T13:35:13.641Z,0.69
2023-02-17T13:37:44.372Z,0.63
2023-02-17T13:40:12.842Z,0.66
2023-02-17T13:42:44.395Z,0.61
2023-02-17T13:45:27.086Z,0.68
2023-02-17T13:47:57.649Z,0.67
2023-02-17T13:50:38.223Z,0.68
2023-02-17T13:53:26.622Z,0.75
2023-02-17T13:55:57.583Z,0.69
2023-02-17T13:58:28.951Z,0.71
2023-02-17T14:01:00.828Z,0.63
2023-02-17T14:03:29.915Z,0.57
2023-02-17T14:05:59.806Z,0.64
2023-02-17T14:08:39.173Z,0.64
2023-02-17T14:11:14.132Z,0.66
2023-02-17T14:13:45.916Z,0.62
2023-02-17T14:16:36.876Z,0.62
2023-02-17T14:19:09.138Z,0.57
2023-02-17T14:21:40.063Z,0.53
2023-02-17T14:24:09.786Z,0.57
2023-02-17T14:26:45.220Z,0.50
2023-02-17T14:29:14.036Z,0.56
2023-02-17T14:31:47.951Z,0.51
2023-02-17T14:34:34.135Z,0.59
2023-02-17T14:37:09.035Z,0.51
2023-02-17T14:39:37.742Z,0.53
2023-02-17T14:42:06.295Z,0.44
2023-02-17T14:44:34.968Z,0.43
2023-02-17T14:47:02.932Z,0.40
2023-02-17T14:49:30.545Z,0.43
2023-02-17T14:51:58.231Z,0.43
2023-02-17T14:54:27.086Z,0.49
2023-02-17T14:57:26.899Z,0.54
2023-02-17T14:59:57.729Z,0.58
2023-02-17T15:02:25.678Z,0.48
2023-02-17T15:04:53.499Z,0.49
2023-02-17T15:07:21.159Z,0.45
2023-02-17T15:09:49.661Z,0.49
2023-02-17T15:12:21.922Z,0.49
2023-02-17T15:14:49.649Z,0.44
2023-02-17T15:17:17.236Z,0.50
2023-02-17T15:19:45.129Z,0.61
2023-02-17T15:22:16.638Z,0.60
2023-02-17T15:24:50.782Z,0.57
2023-02-17T15:27:19.476Z,0.51
2023-02-17T15:29:48.183Z,0.50
2023-02-17T15:32:20.005Z,0.48
2023-02-17T15:34:47.735Z,0.53
2023-02-17T15:37:15.475Z,0.56
2023-02-17T15:39:43.229Z,0.53
2023-02-17T15:42:13.849Z,0.54
2023-02-17T15:44:46.932Z,0.52
2023-02-17T15:47:20.039Z,0.63
2023-02-17T15:49:48.215Z,0.52
2023-02-17T15:52:16.198Z,0.51
2023-02-17T15:54:44.166Z,0.56
2023-02-17T15:57:24.061Z,0.51
2023-02-17T15:59:55.296Z,0.57
2023-02-17T16:02:25.640Z,0.65
2023-02-17T16:04:54.366Z,0.68
2023-02-17T16:07:23.241Z,0.68
2023-02-17T16:09:50.829Z,0.55
2023-02-17T16:12:27.073Z,0.60
2023-02-17T16:14:57.021Z,0.72
2023-02-17T16:17:29.142Z,0.76
2023-02-17T16:19:57.757Z,0.74
2023-02-17T16:22:25.521Z,0.71
2023-02-17T16:25:14.294Z,0.73
2023-02-17T16:27:44.384Z,0.67
2023-02-17T16:30:20.003Z,0.65
2023-02-17T16:32:52.469Z,0.75
2023-02-17T16:35:22.933Z,0.80
2023-02-17T16:38:14.296Z,0.76
2023-02-17T16:40:53.312Z,0.68
2023-02-17T16:43:24.276Z,0.63
2023-02-17T16:45:57.962Z,0.52
2023-02-17T16:48:28.462Z,0.57
2023-02-17T16:50:56.881Z,0.51
2023-02-17T16:53:25.970Z,0.48
2023-02-17T16:55:55.921Z,0.51
2023-02-17T16:58:25.554Z,0.61
2023-02-17T17:00:56.016Z,0.58
2023-02-17T17:03:23.884Z,0.46
2023-02-17T17:05:53.027Z,0.47
2023-02-17T17:08:22.193Z,0.38
2023-02-17T17:10:53.496Z,0.33
2023-02-17T17:13:23.725Z,0.31
2023-02-17T17:15:51.696Z,0.34
2023-02-17T17:18:21.402Z,0.30
2023-02-17T17:20:49.857Z,0.23
2023-02-17T17:23:20.245Z,0.23
2023-02-17T17:25:48.664Z,0.26
2023-02-17T17:28:20.107Z,0.20
2023-02-17T17:30:48.449Z,0.17
2023-02-17T17:33:16.438Z,0.28
2023-02-17T17:35:44.023Z,0.17
2023-02-17T17:38:19.575Z,0.14
2023-02-17T17:40:55.800Z,0.11
2023-02-17T17:43:24.493Z,0.12
2023-02-17T17:45:54.967Z,0.18
2023-02-17T17:48:22.559Z,0.26
2023-02-17T17:50:50.517Z,0.22
2023-02-17T17:53:18.684Z,0.21
2023-02-17T17:55:48.260Z,0.22
2023-02-17T17:58:17.283Z,0.09
2023-02-17T18:00:50.636Z,0.19
2023-02-17T18:03:18.922Z,0.12
2023-02-17T18:05:46.589Z,0.14
2023-02-17T18:08:15.597Z,0.21
2023-02-17T18:10:43.541Z,0.13
2023-02-17T18:13:16.695Z,0.20
2023-02-17T18:15:44.933Z,0.35
2023-02-17T18:18:13.730Z,0.44
2023-02-17T18:20:41.449Z,0.39
2023-02-17T18:23:09.002Z,0.36
2023-02-17T18:25:37.841Z,0.26
2023-02-17T18:28:05.910Z,0.21
2023-02-17T18:30:34.055Z,0.19
2023-02-17T18:33:02.723Z,0.15
2023-02-17T18:35:33.461Z,0.12
2023-02-17T18:38:01.151Z,0.18
2023-02-17T18:40:29.548Z,0.11
2023-02-17T18:42:57.456Z,0.12
2023-02-17T18:45:26.275Z,0.16
2023-02-17T18:47:54.094Z,0.17
2023-02-17T18:50:22.091Z,0.11
2023-02-17T18:52:49.606Z,0.13
2023-02-17T18:55:17.499Z,0.22
2023-02-17T18:57:46.746Z,0.23
2023-02-17T19:00:16.737Z,0.14
2023-02-17T19:02:46.118Z,0.22
2023-02-17T19:05:13.922Z,0.15
2023-02-17T19:07:46.702Z,0.17
2023-02-17T19:10:15.609Z,0.23
2023-02-17T19:12:43.175Z,0.35
2023-02-17T19:15:14.091Z,0.24
2023-02-17T19:17:42.446Z,0.20
2023-02-17T19:20:10.981Z,0.06
2023-02-17T19:22:38.854Z,0.04
2023-02-17T19:25:08.332Z,0.08
2023-02-17T19:27:39.704Z,0.05
2023-02-17T19:30:10.052Z,0.03
2023-02-17T19:32:37.791Z,0.20
2023-02-17T19:35:06.783Z,0.16
2023-02-17T19:37:39.591Z,0.16
2023-02-17T19:40:08.016Z,0.12
2023-02-17T19:42:36.563Z,0.08
2023-02-17T19:45:04.574Z,-0.03
2023-02-17T19:47:32.286Z,0.05
2023-02-17T19:50:01.306Z,0.03
2023-02-17T19:52:31.329Z,-0.03
2023-02-17T19:54:59.764Z,-0.11
2023-02-17T19:57:27.820Z,-0.20
2023-02-17T19:59:55.450Z,-0.09
2023-02-17T20:02:23.111Z,-0.10
2023-02-17T20:04:52.879Z,-0.09
2023-02-17T20:07:20.606Z,-0.22
2023-02-17T20:09:51.423Z,-0.22
2023-02-17T20:12:19.224Z,-0.33
2023-02-17T20:14:46.872Z,-0.26
2023-02-17T20:17:16.784Z,-0.23
2023-02-17T20:19:44.512Z,-0.31
2023-02-17T20:22:12.163Z,-0.33
2023-02-17T20:24:42.091Z,-0.31
2023-02-17T20:27:10.152Z,-0.28
2023-02-17T20:29:38.231Z,-0.41
2023-02-17T20:32:06.872Z,-0.33
2023-02-17T20:34:40.931Z,-0.29
2023-02-17T20:37:11.679Z,-0.25
2023-02-17T20:39:41.182Z,-0.20
2023-02-17T20:42:09.214Z,-0.20
2023-02-17T20:44:37.005Z,-0.08
2023-02-17T20:47:04.972Z,-0.02
2023-02-17T20:49:32.792Z,-0.11
2023-02-17T20:52:00.438Z,-0.13
2023-02-17T20:54:28.029Z,-0.10
2023-02-17T20:56:57.953Z,-0.14
2023-02-17T20:59:25.712Z,-0.20
2023-02-17T21:01:56.114Z,-0.22
2023-02-17T21:04:23.719Z,-0.22
2023-02-17T21:06:52.152Z,-0.25
2023-02-17T21:09:20.714Z,-0.33
2023-02-17T21:11:48.959Z,-0.29
2023-02-17T21:14:16.575Z,-0.37
2023-02-17T21:16:45.132Z,-0.45
2023-02-17T21:19:13.158Z,-0.34
2023-02-17T21:21:43.124Z,-0.32
2023-02-17T21:24:12.074Z,-0.30
2023-02-17T21:26:40.262Z,-0.36
2023-02-17T21:29:08.176Z,-0.35
2023-02-17T21:31:37.108Z,-0.38
2023-02-17T21:34:05.549Z,-0.31
2023-02-17T21:36:33.669Z,-0.36
2023-02-17T21:39:01.562Z,-0.31
2023-02-17T21:41:31.914Z,-0.23
2023-02-17T21:44:18.874Z,-0.31
2023-02-17T21:46:46.647Z,-0.28
2023-02-17T21:49:14.640Z,-0.28
2023-02-17T21:51:42.513Z,-0.33
2023-02-17T21:54:13.445Z,-0.44
2023-02-17T21:56:41.305Z,-0.38
2023-02-17T21:59:09.342Z,-0.28
2023-02-17T22:01:36.947Z,-0.23
2023-02-17T22:04:05.040Z,-0.26
2023-02-17T22:06:36.114Z,-0.35
2023-02-17T22:09:06.988Z,-0.35
2023-02-17T22:11:39.565Z,-0.40
2023-02-17T22:14:11.631Z,-0.36
2023-02-17T22:16:39.771Z,-0.52
2023-02-17T22:19:09.198Z,-0.43
2023-02-17T22:21:38.504Z,-0.30
2023-02-17T22:24:06.274Z,-0.42
2023-02-17T22:26:34.493Z,-0.43
2023-02-17T22:29:02.013Z,-0.39
2023-02-17T22:31:31.387Z,-0.24
2023-02-17T22:34:03.392Z,-0.41
2023-02-17T22:36:33.260Z,-0.44
2023-02-17T22:39:01.069Z,-0.63
2023-02-17T22:41:29.024Z,-0.53
2023-02-17T22:43:56.793Z,-0.43
2023-02-17T22:46:27.182Z,-0.42
2023-02-17T22:48:57.423Z,-0.48
2023-02-17T22:51:32.102Z,-0.45
2023-02-17T22:54:01.128Z,-0.45
2023-02-17T22:56:30.086Z,-0.34
2023-02-17T22:59:00.980Z,-0.37
2023-02-17T23:01:30.454Z,-0.60
2023-02-17T23:03:59.114Z,-0.70
2023-02-17T23:06:32.779Z,-0.74
2023-02-17T23:09:02.356Z,-0.85
2023-02-17T23:11:51.396Z,-0.79
2023-02-17T23:14:37.048Z,-0.80
2023-02-17T23:17:10.170Z,-0.68
2023-02-17T23:19:39.126Z,-0.60
2023-02-17T23:22:15.909Z,-0.53
2023-02-17T23:24:44.715Z,-0.52
2023-02-17T23:27:13.203Z,-0.49
2023-02-17T23:29:41.669Z,-0.63
2023-02-17T23:32:09.598Z,-0.75
2023-02-17T23:34:38.230Z,-0.70
2023-02-17T23:37:05.990Z,-0.61
2023-02-17T23:39:37.933Z,-0.73
2023-02-17T23:42:08.367Z,-0.61
2023-02-17T23:44:36.160Z,-0.51
2023-02-17T23:47:03.863Z,-0.45
2023-02-17T23:49:32.190Z,-0.52
2023-02-17T23:52:00.014Z,-0.57
2023-02-17T23:54:27.679Z,-0.57
2023-02-17T23:56:55.196Z,-0.66
2023-02-17T23:59:22.732Z,-0.68
